Time;durP1;ratioP1;P1;durP2;ratioP2;P2;SDS_P1;SDS_P2;PMS_P1;PMS_P2;Temp;Humidity;BMP_temperature;BMP_pressure;BME280_temperature;BME280_humidity;BME280_pressure;Samples;Min_cycle;Max_cycle;Signal;HPM_P1;HPM_P2
2024/03/13 00:01:06;;;;;;;0.85;0.85;;;;;;;-146.26;100.00;59860.63;5077078;28;20058;-77
2024/03/13 00:03:33;;;;;;;5.03;3.13;;;;;;;-146.26;100.00;59860.63;5075411;28;20058;-73
2024/03/13 00:06:02;;;;;;;0.82;0.82;;;;;;;-146.26;100.00;59860.63;5076233;28;20058;-74
2024/03/13 00:08:28;;;;;;;0.82;0.82;;;;;;;-146.26;100.00;59860.63;5077298;28;20124;-73
2024/03/13 00:10:53;;;;;;;0.20;0.20;;;;;;;-146.26;100.00;59860.63;5084190;28;20048;-75
2024/03/13 00:13:20;;;;;;;4.18;3.88;;;;;;;-146.26;100.00;59860.63;5061181;28;20456;-74
2024/03/13 00:15:46;;;;;;;2.95;2.63;;;;;;;-146.26;100.00;59860.63;5073292;28;20040;-72
2024/03/13 00:18:11;;;;;;;0.20;0.20;;;;;;;-146.26;100.00;59860.63;5080009;28;20044;-72
2024/03/13 00:20:37;;;;;;;0.35;0.35;;;;;;;-146.26;100.00;59860.63;5084539;28;20492;-73
2024/03/13 00:23:03;;;;;;;2.35;2.25;;;;;;;-146.26;100.00;59860.63;5073245;28;20529;-74
2024/03/13 00:25:29;;;;;;;0.43;0.43;;;;;;;-146.26;100.00;59860.63;5058367;28;20028;-75
2024/03/13 00:27:55;;;;;;;3.58;3.25;;;;;;;-146.26;100.00;59860.63;5086349;28;20127;-74
2024/03/13 00:30:22;;;;;;;0.30;0.30;;;;;;;-146.26;100.00;59860.63;5085616;28;20350;-73
2024/03/13 00:32:54;;;;;;;0.50;0.50;;;;;;;-146.26;100.00;59860.63;5078813;28;20094;-74
2024/03/13 00:35:23;;;;;;;11.80;4.68;;;;;;;-146.26;100.00;59860.63;5073617;28;20058;-72
2024/03/13 00:37:51;;;;;;;0.68;0.68;;;;;;;-146.26;100.00;59860.63;5081140;28;20070;-73
2024/03/13 00:40:17;;;;;;;4.05;3.75;;;;;;;-146.26;100.00;59860.63;5077547;28;20128;-72
2024/03/13 00:42:43;;;;;;;1.05;1.00;;;;;;;-146.26;100.00;59860.63;5083215;28;20155;-72
2024/03/13 00:45:13;;;;;;;4.50;3.65;;;;;;;-146.26;100.00;59860.63;5077928;28;20053;-75
2024/03/13 00:47:39;;;;;;;0.60;0.60;;;;;;;-146.26;100.00;59860.63;5082721;28;20035;-72
2024/03/13 00:50:07;;;;;;;0.45;0.45;;;;;;;-146.26;100.00;59860.63;5080440;28;20089;-73
2024/03/13 00:52:33;;;;;;;0.40;0.40;;;;;;;-146.26;100.00;59860.63;5082096;28;20467;-72
2024/03/13 00:54:58;;;;;;;3.08;2.78;;;;;;;-146.26;100.00;59860.63;5085246;28;20067;-75
2024/03/13 00:57:24;;;;;;;2.55;2.35;;;;;;;-146.26;100.00;59860.63;5072034;28;20147;-74
2024/03/13 00:59:50;;;;;;;0.40;0.35;;;;;;;-146.26;100.00;59860.63;5079099;28;20060;-73
2024/03/13 01:02:15;;;;;;;4.75;4.35;;;;;;;-146.26;100.00;59860.63;5059658;28;20040;-75
2024/03/13 01:04:43;;;;;;;0.20;0.20;;;;;;;-146.26;100.00;59860.63;5079168;28;20031;-75
2024/03/13 01:07:09;;;;;;;0.40;0.40;;;;;;;-146.26;100.00;59860.63;5054717;28;20055;-74
2024/03/13 01:09:35;;;;;;;10.50;6.78;;;;;;;-146.26;100.00;59860.63;5074556;28;20048;-75
2024/03/13 01:12:01;;;;;;;7.85;3.75;;;;;;;-146.26;100.00;59860.63;5076409;28;20051;-74
2024/03/13 01:14:27;;;;;;;0.57;0.57;;;;;;;-146.26;100.00;59860.63;5072480;28;20055;-73
2024/03/13 01:16:53;;;;;;;2.70;2.30;;;;;;;-146.26;100.00;59860.63;5072347;28;20050;-73
2024/03/13 01:19:21;;;;;;;0.30;0.30;;;;;;;-146.26;100.00;59860.63;5073401;28;20044;-76
2024/03/13 01:21:51;;;;;;;6.15;3.22;;;;;;;-146.26;100.00;59860.63;5080124;28;20105;-75
2024/03/13 01:24:18;;;;;;;0.30;0.30;;;;;;;-146.26;100.00;59860.63;5059209;28;20039;-73
2024/03/13 01:26:44;;;;;;;0.73;0.73;;;;;;;-146.26;100.00;59860.63;5078299;28;20078;-72
2024/03/13 01:29:10;;;;;;;3.08;2.85;;;;;;;-146.26;100.00;59860.63;5072737;28;20119;-73
2024/03/13 01:31:35;;;;;;;9.80;9.27;;;;;;;-146.26;100.00;59860.63;5075743;28;20498;-73
2024/03/13 01:34:04;;;;;;;10.52;4.57;;;;;;;-146.26;100.00;59860.63;5064568;28;20427;-73
2024/03/13 01:39:17;;;;;;;1.17;1.08;;;;;;;-146.26;100.00;59860.63;5063714;28;20075;-74
2024/03/13 01:55:44;;;;;;;9.32;6.28;;;;;;;-146.26;100.00;59860.63;5083922;28;20089;-72
2024/03/13 01:58:19;;;;;;;2.28;2.17;;;;;;;-146.26;100.00;59860.63;5081045;28;20051;-72
2024/03/13 02:03:31;;;;;;;1.10;1.02;;;;;;;-146.26;100.00;59860.63;5079509;28;20113;-73
2024/03/13 02:06:01;;;;;;;5.15;2.85;;;;;;;-146.26;100.00;59860.63;5079272;28;20056;-74
2024/03/13 02:08:28;;;;;;;3.83;3.63;;;;;;;-146.26;100.00;59860.63;5085919;28;20135;-74
2024/03/13 02:10:57;;;;;;;0.60;0.60;;;;;;;-146.26;100.00;59860.63;5100562;28;20085;-72
2024/03/13 02:13:24;;;;;;;3.40;3.15;;;;;;;-146.26;100.00;59860.63;5057738;28;20051;-72
2024/03/13 02:15:50;;;;;;;5.85;5.15;;;;;;;-146.26;100.00;59860.63;5077927;28;20044;-73
2024/03/13 02:18:31;;;;;;;1.38;1.27;;;;;;;-146.26;100.00;59860.63;5078840;28;20404;-73
2024/03/13 02:21:01;;;;;;;2.38;2.25;;;;;;;-146.26;100.00;59860.63;5096317;28;20458;-74
2024/03/13 02:23:28;;;;;;;0.88;0.88;;;;;;;-146.26;100.00;59860.63;5071649;28;20164;-72
2024/03/13 02:25:55;;;;;;;2.13;1.95;;;;;;;-146.26;100.00;59860.63;5074570;28;20046;-71
2024/03/13 02:28:30;;;;;;;6.45;5.22;;;;;;;-146.26;100.00;59860.63;5065915;28;20063;-74
2024/03/13 02:30:55;;;;;;;0.68;0.68;;;;;;;-146.26;100.00;59860.63;5061518;28;20044;-74
2024/03/13 02:33:21;;;;;;;0.90;0.90;;;;;;;-146.26;100.00;59860.63;5060223;28;20075;-73
2024/03/13 02:35:46;;;;;;;4.03;1.65;;;;;;;-146.26;100.00;59860.63;5073070;28;20040;-73
2024/03/13 02:38:12;;;;;;;2.08;1.98;;;;;;;-146.26;100.00;59860.63;5061887;28;20086;-74
2024/03/13 02:40:38;;;;;;;7.65;6.95;;;;;;;-146.26;100.00;59860.63;5071536;28;20028;-74
2024/03/13 02:43:04;;;;;;;5.97;4.13;;;;;;;-146.26;100.00;59860.63;5077227;28;20183;-74
2024/03/13 02:45:31;;;;;;;0.20;0.20;;;;;;;-146.26;100.00;59860.63;5073266;28;20411;-73
2024/03/13 02:47:57;;;;;;;2.50;2.22;;;;;;;-146.26;100.00;59860.63;5058884;28;20051;-73
2024/03/13 02:50:22;;;;;;;9.88;4.50;;;;;;;-146.26;100.00;59860.63;5071339;28;20048;-74
2024/03/13 02:52:49;;;;;;;9.60;7.10;;;;;;;-146.26;100.00;59860.63;5075957;28;20076;-74
2024/03/13 02:55:15;;;;;;;6.25;5.53;;;;;;;-146.26;100.00;59860.63;5072766;28;20048;-74
2024/03/13 02:57:40;;;;;;;0.52;0.52;;;;;;;-146.26;100.00;59860.63;5075973;28;20408;-74
2024/03/13 03:00:07;;;;;;;6.20;5.65;;;;;;;-146.26;100.00;59860.63;5081000;28;20156;-73
2024/03/13 03:02:35;;;;;;;1.65;1.55;;;;;;;-146.26;100.00;59860.63;5075245;28;20040;-72
2024/03/13 03:05:03;;;;;;;2.25;2.15;;;;;;;-146.26;100.00;59860.63;5081477;28;20035;-75
2024/03/13 03:07:29;;;;;;;0.65;0.65;;;;;;;-146.26;100.00;59860.63;5075162;28;20048;-72
2024/03/13 03:09:55;;;;;;;14.90;7.93;;;;;;;-146.26;100.00;59860.63;5074408;28;20052;-73
2024/03/13 03:12:21;;;;;;;1.38;1.27;;;;;;;-146.26;100.00;59860.63;5079665;28;20060;-75
2024/03/13 03:14:47;;;;;;;0.68;0.68;;;;;;;-146.26;100.00;59860.63;5081189;28;20048;-72
2024/03/13 03:17:14;;;;;;;2.55;2.28;;;;;;;-146.26;100.00;59860.63;5077876;28;20099;-72
2024/03/13 03:19:40;;;;;;;2.13;1.95;;;;;;;-146.26;100.00;59860.63;5086944;28;20412;-72
2024/03/13 03:22:06;;;;;;;5.88;5.28;;;;;;;-146.26;100.00;59860.63;5075518;28;20106;-74
2024/03/13 03:24:31;;;;;;;0.52;0.52;;;;;;;-146.26;100.00;59860.63;5078313;28;20056;-72
2024/03/13 03:27:00;;;;;;;0.95;0.90;;;;;;;-146.26;100.00;59860.63;5074298;28;20044;-73
2024/03/13 03:29:26;;;;;;;6.50;5.47;;;;;;;-146.26;100.00;59860.63;5062794;28;20384;-72
2024/03/13 03:31:52;;;;;;;11.43;7.88;;;;;;;-146.26;100.00;59860.63;5087261;28;20020;-73
2024/03/13 03:34:18;;;;;;;2.25;2.15;;;;;;;-146.26;100.00;59860.63;5081769;28;20457;-74
2024/03/13 03:36:44;;;;;;;0.52;0.52;;;;;;;-146.26;100.00;59860.63;5078060;28;20074;-74
2024/03/13 03:39:15;;;;;;;0.45;0.40;;;;;;;-146.26;100.00;59860.63;5082137;28;20079;-73
2024/03/13 03:41:48;;;;;;;1.17;1.17;;;;;;;-146.26;100.00;59860.63;5081503;28;20056;-73
2024/03/13 03:44:13;;;;;;;5.23;4.60;;;;;;;-146.26;100.00;59860.63;5072399;28;20120;-74
2024/03/13 03:46:42;;;;;;;0.30;0.30;;;;;;;-146.26;100.00;59860.63;5067228;28;20040;-73
2024/03/13 03:49:08;;;;;;;8.98;6.70;;;;;;;-146.26;100.00;59860.63;5083066;28;20143;-74
2024/03/13 03:51:34;;;;;;;5.85;4.82;;;;;;;-146.26;100.00;59860.63;5077144;28;20051;-73
2024/03/13 03:54:00;;;;;;;5.90;5.40;;;;;;;-146.26;100.00;59860.63;5078104;28;20134;-73
2024/03/13 03:56:30;;;;;;;6.13;5.55;;;;;;;-146.26;100.00;59860.63;5080853;28;20146;-73
2024/03/13 03:58:57;;;;;;;2.15;1.58;;;;;;;-146.26;100.00;59860.63;5096325;28;20466;-73
2024/03/13 04:01:26;;;;;;;0.50;0.50;;;;;;;-146.26;100.00;59860.63;5072822;28;20142;-72
2024/03/13 04:03:52;;;;;;;1.60;1.50;;;;;;;-146.26;100.00;59860.63;5078723;28;20093;-74
2024/03/13 04:06:17;;;;;;;15.75;5.43;;;;;;;-146.26;100.00;59860.63;5075886;28;20060;-73
2024/03/13 04:08:44;;;;;;;4.25;3.92;;;;;;;-146.26;100.00;59860.63;5083389;28;20151;-75
2024/03/13 04:11:13;;;;;;;1.52;1.48;;;;;;;-146.26;100.00;59860.63;5083896;28;20073;-72
2024/03/13 04:13:39;;;;;;;6.50;6.03;;;;;;;-146.26;100.00;59860.63;5079756;28;20122;-72
2024/03/13 04:16:07;;;;;;;0.20;0.20;;;;;;;-146.26;100.00;59860.63;5078660;28;20032;-72
2024/03/13 04:18:36;;;;;;;0.80;0.77;;;;;;;-146.26;100.00;59860.63;5059633;28;20051;-72
2024/03/13 04:21:03;;;;;;;1.30;1.20;;;;;;;-146.26;100.00;59860.63;5078732;28;20044;-72
2024/03/13 04:23:29;;;;;;;2.72;2.63;;;;;;;-146.26;100.00;59860.63;5082276;28;20040;-73
2024/03/13 04:25:55;;;;;;;0.82;0.82;;;;;;;-146.26;100.00;59860.63;5065467;28;20051;-72
2024/03/13 04:28:22;;;;;;;4.93;4.47;;;;;;;-146.26;100.00;59860.63;5079402;28;20058;-72
2024/03/13 04:30:48;;;;;;;2.85;1.85;;;;;;;-146.26;100.00;59860.63;5074029;28;20416;-72
2024/03/13 04:33:16;;;;;;;10.57;7.50;;;;;;;-146.26;100.00;59860.63;5071449;28;20055;-72
2024/03/13 04:35:45;;;;;;;4.90;4.50;;;;;;;-146.26;100.00;59860.63;5071630;28;20115;-78
2024/03/13 04:38:13;;;;;;;6.47;5.82;;;;;;;-146.26;100.00;59860.63;5072864;28;20040;-76
2024/03/13 04:40:39;;;;;;;3.25;3.13;;;;;;;-146.26;100.00;59860.63;5063755;28;20035;-73
2024/03/13 04:43:07;;;;;;;1.80;1.70;;;;;;;-146.26;100.00;59860.63;5082016;28;20117;-73
2024/03/13 04:45:37;;;;;;;2.78;2.63;;;;;;;-146.26;100.00;59860.63;5075233;28;20103;-73
2024/03/13 04:48:04;;;;;;;1.02;1.02;;;;;;;-146.26;100.00;59860.63;5081816;28;20071;-72
2024/03/13 04:50:32;;;;;;;5.78;5.07;;;;;;;-146.26;100.00;59860.63;5081510;28;20054;-74
2024/03/13 04:52:58;;;;;;;2.28;2.17;;;;;;;-146.26;100.00;59860.63;5084665;28;20060;-72
2024/03/13 04:55:25;;;;;;;0.30;0.30;;;;;;;-146.26;100.00;59860.63;5060197;28;20036;-74
2024/03/13 04:57:51;;;;;;;0.38;0.38;;;;;;;-146.26;100.00;59860.63;5075305;28;20048;-74
2024/03/13 05:00:17;;;;;;;4.38;4.07;;;;;;;-146.26;100.00;59860.63;5071821;28;20040;-72
2024/03/13 05:02:43;;;;;;;5.18;4.78;;;;;;;-146.26;100.00;59860.63;5078046;28;20184;-73
2024/03/13 05:05:14;;;;;;;4.88;4.45;;;;;;;-146.26;100.00;59860.63;5087319;28;20028;-75
2024/03/13 05:07:44;;;;;;;6.38;5.80;;;;;;;-146.26;100.00;59860.63;5072650;28;20032;-73
2024/03/13 05:10:10;;;;;;;0.50;0.50;;;;;;;-146.26;100.00;59860.63;5075153;28;20076;-73
2024/03/13 05:12:39;;;;;;;0.70;0.70;;;;;;;-146.26;100.00;59860.63;5074578;28;20102;-75
2024/03/13 05:15:06;;;;;;;0.75;0.75;;;;;;;-146.26;100.00;59860.63;5079341;28;20109;-75
2024/03/13 05:17:39;;;;;;;0.57;0.57;;;;;;;-146.26;100.00;59860.63;5074034;28;20044;-74
2024/03/13 05:20:07;;;;;;;1.60;1.50;;;;;;;-146.26;100.00;59860.63;5078651;28;20120;-75
2024/03/13 05:22:35;;;;;;;0.68;0.68;;;;;;;-146.26;100.00;59860.63;5072501;28;20028;-74
2024/03/13 05:25:02;;;;;;;1.05;0.95;;;;;;;-146.26;100.00;59860.63;5077759;28;20436;-75
2024/03/13 05:27:27;;;;;;;6.75;4.85;;;;;;;-146.26;100.00;59860.63;5066795;28;20485;-73
2024/03/13 05:29:53;;;;;;;1.35;1.15;;;;;;;-146.26;100.00;59860.63;5078907;28;20055;-73
2024/03/13 05:32:19;;;;;;;6.95;6.35;;;;;;;-146.26;100.00;59860.63;5076553;28;20116;-72
2024/03/13 05:34:44;;;;;;;0.43;0.43;;;;;;;-146.26;100.00;59860.63;5083365;28;20147;-75
2024/03/13 05:37:12;;;;;;;6.30;6.00;;;;;;;-146.26;100.00;59860.63;5072407;28;20499;-75
2024/03/13 05:39:38;;;;;;;11.73;10.82;;;;;;;-146.26;100.00;59860.63;5074311;28;20059;-73
2024/03/13 05:42:04;;;;;;;7.75;6.95;;;;;;;-146.26;100.00;59860.63;5062588;28;20048;-74
2024/03/13 05:44:29;;;;;;;8.20;5.35;;;;;;;-146.26;100.00;59860.63;5077484;28;20040;-73
2024/03/13 05:46:55;;;;;;;0.45;0.45;;;;;;;-146.26;100.00;59860.63;5061140;28;20055;-72
2024/03/13 05:49:21;;;;;;;0.73;0.68;;;;;;;-146.26;100.00;59860.63;5075932;28;20511;-74
2024/03/13 05:51:47;;;;;;;1.20;1.15;;;;;;;-146.26;100.00;59860.63;5072564;28;20051;-75
2024/03/13 05:54:14;;;;;;;1.02;0.93;;;;;;;-146.26;100.00;59860.63;5073768;28;20040;-75
2024/03/13 05:56:40;;;;;;;1.48;1.38;;;;;;;-146.26;100.00;59860.63;5068795;28;20045;-73
2024/03/13 05:59:06;;;;;;;6.32;5.72;;;;;;;-146.26;100.00;59860.63;5074517;28;20121;-75
2024/03/13 06:01:32;;;;;;;1.35;1.30;;;;;;;-146.26;100.00;59860.63;5081513;28;20027;-74
2024/03/13 06:03:59;;;;;;;9.25;8.35;;;;;;;-146.26;100.00;59860.63;5069627;28;20106;-75
2024/03/13 06:06:25;;;;;;;1.00;1.00;;;;;;;-146.26;100.00;59860.63;5075270;28;20125;-74
2024/03/13 06:08:51;;;;;;;3.65;2.40;;;;;;;-146.26;100.00;59860.63;5077269;28;20116;-73
2024/03/13 06:11:19;;;;;;;7.10;5.78;;;;;;;-146.26;100.00;59860.63;5073444;28;20037;-74
2024/03/13 06:13:48;;;;;;;10.30;4.97;;;;;;;-146.26;100.00;59860.63;5083416;28;20059;-77
2024/03/13 06:16:15;;;;;;;3.42;3.13;;;;;;;-146.26;100.00;59860.63;5072539;28;20063;-74
2024/03/13 06:18:41;;;;;;;0.40;0.40;;;;;;;-146.26;100.00;59860.63;5077744;28;20063;-73
2024/03/13 06:21:07;;;;;;;0.50;0.50;;;;;;;-146.26;100.00;59860.63;5075143;28;20566;-74
2024/03/13 06:23:36;;;;;;;0.70;0.70;;;;;;;-146.26;100.00;59860.63;5075723;28;20047;-72
2024/03/13 06:26:03;;;;;;;8.75;7.28;;;;;;;-146.26;100.00;59860.63;5067947;28;20028;-73
2024/03/13 06:31:15;;;;;;;0.98;0.95;;;;;;;-146.26;100.00;59860.63;5079782;28;20094;-77
2024/03/13 06:33:41;;;;;;;10.07;6.10;;;;;;;-146.26;100.00;59860.63;5083536;28;20337;-86
2024/03/13 06:36:07;;;;;;;5.45;4.82;;;;;;;-146.26;100.00;59860.63;5080917;28;20131;-87
2024/03/13 06:38:35;;;;;;;1.65;0.85;;;;;;;-146.26;100.00;59860.63;5080676;28;20466;-87
2024/03/13 06:41:00;;;;;;;1.30;1.20;;;;;;;-146.26;100.00;59860.63;5082354;28;20093;-85
2024/03/13 06:43:26;;;;;;;5.22;4.80;;;;;;;-146.26;100.00;59860.63;5062107;28;20484;-86
2024/03/13 06:45:52;;;;;;;2.55;2.45;;;;;;;-146.26;100.00;59860.63;5058429;28;20075;-82
2024/03/13 06:48:18;;;;;;;16.35;15.48;;;;;;;-146.26;100.00;59860.63;5077123;28;20048;-85
2024/03/13 06:50:44;;;;;;;3.22;2.88;;;;;;;-146.26;100.00;59860.63;5083889;28;20051;-89
2024/03/13 06:53:10;;;;;;;5.47;5.07;;;;;;;-146.26;100.00;59860.63;5071552;28;20512;-89
2024/03/13 06:55:37;;;;;;;9.30;8.70;;;;;;;-146.26;100.00;59860.63;5060389;28;20044;-89
2024/03/13 06:58:04;;;;;;;3.40;0.75;;;;;;;-146.26;100.00;59860.63;5080484;28;20202;-89
2024/03/13 07:00:32;;;;;;;1.40;1.40;;;;;;;-146.26;100.00;59860.63;5100854;28;20045;-89
2024/03/13 07:03:01;;;;;;;1.65;1.55;;;;;;;-146.26;100.00;59860.63;5077844;28;20436;-89
2024/03/13 07:05:29;;;;;;;3.97;3.63;;;;;;;-146.26;100.00;59860.63;5070225;28;20528;-89
2024/03/13 07:07:56;;;;;;;0.60;0.60;;;;;;;-146.26;100.00;59860.63;5071139;28;20705;-90
2024/03/13 07:10:22;;;;;;;7.10;6.50;;;;;;;-146.26;100.00;59860.63;5072242;28;20044;-89
2024/03/13 07:12:48;;;;;;;8.77;7.90;;;;;;;-146.26;100.00;59860.63;5070750;28;20423;-88
2024/03/13 07:15:14;;;;;;;5.78;5.38;;;;;;;-146.26;100.00;59860.63;5066948;28;20094;-87
2024/03/13 07:17:40;;;;;;;5.63;5.18;;;;;;;-146.26;100.00;59860.63;5065102;28;20226;-87
2024/03/13 07:20:09;;;;;;;1.70;1.60;;;;;;;-146.26;100.00;59860.63;5080975;28;20032;-87
2024/03/13 07:22:38;;;;;;;7.60;6.63;;;;;;;-146.26;100.00;59860.63;5062164;28;20032;-88
2024/03/13 07:25:12;;;;;;;8.13;4.53;;;;;;;-146.26;100.00;59860.63;5115274;28;20051;-87
2024/03/13 07:27:38;;;;;;;1.13;1.08;;;;;;;-146.26;100.00;59860.63;5081120;28;20021;-88
2024/03/13 07:30:05;;;;;;;0.30;0.30;;;;;;;-146.26;100.00;59860.63;5106582;28;20032;-89
2024/03/13 07:32:39;;;;;;;0.30;0.30;;;;;;;-146.26;100.00;59860.63;5094006;28;20046;-86
2024/03/13 07:35:05;;;;;;;1.17;1.10;;;;;;;-146.26;100.00;59860.63;5093447;28;20496;-86
2024/03/13 07:37:31;;;;;;;9.38;8.43;;;;;;;-146.26;100.00;59860.63;5105954;28;20027;-86
2024/03/13 07:39:57;;;;;;;11.55;7.85;;;;;;;-146.26;100.00;59860.63;5106973;28;20036;-88
2024/03/13 07:42:25;;;;;;;6.85;6.20;;;;;;;-146.26;100.00;59860.63;5102277;28;20040;-84
2024/03/13 07:44:51;;;;;;;9.95;9.02;;;;;;;-146.26;100.00;59860.63;5086747;28;20091;-86
2024/03/13 07:47:17;;;;;;;1.38;1.27;;;;;;;-146.26;100.00;59860.63;5072274;28;20471;-87
2024/03/13 07:49:43;;;;;;;12.75;11.55;;;;;;;-146.26;100.00;59860.63;5078290;28;20039;-84
2024/03/13 07:52:09;;;;;;;10.95;8.77;;;;;;;-146.26;100.00;59860.63;5093867;28;20078;-83
2024/03/13 07:54:37;;;;;;;9.27;7.30;;;;;;;-146.26;100.00;59860.63;5069926;28;20458;-82
2024/03/13 07:57:04;;;;;;;3.60;3.35;;;;;;;-146.26;100.00;59860.63;5062689;28;20093;-85
2024/03/13 07:59:30;;;;;;;3.78;3.45;;;;;;;-146.26;100.00;59860.63;5075081;28;20101;-80
2024/03/13 08:01:56;;;;;;;3.20;2.95;;;;;;;-146.26;100.00;59860.63;5075734;28;20044;-80
2024/03/13 08:04:24;;;;;;;8.73;7.93;;;;;;;-146.26;100.00;59860.63;5080369;28;20105;-80
2024/03/13 08:06:53;;;;;;;0.70;0.70;;;;;;;-146.26;100.00;59860.63;5078731;28;20554;-85
2024/03/13 08:09:19;;;;;;;5.00;4.80;;;;;;;-146.26;100.00;59860.63;5084509;28;20047;-84
2024/03/13 08:11:45;;;;;;;10.15;9.27;;;;;;;-146.26;100.00;59860.63;5089803;28;20044;-82
2024/03/13 08:14:12;;;;;;;11.07;10.10;;;;;;;-146.26;100.00;59860.63;5088102;28;20032;-85
2024/03/13 08:16:39;;;;;;;9.70;8.80;;;;;;;-146.26;100.00;59860.63;5073360;28;20210;-83
2024/03/13 08:19:04;;;;;;;6.20;5.70;;;;;;;-146.26;100.00;59860.63;5081993;28;20122;-85
2024/03/13 08:21:30;;;;;;;9.88;7.90;;;;;;;-146.26;100.00;59860.63;5080902;28;20052;-82
2024/03/13 08:23:56;;;;;;;6.95;6.07;;;;;;;-146.26;100.00;59860.63;5083849;28;20072;-86
2024/03/13 08:26:21;;;;;;;0.57;0.57;;;;;;;-146.26;100.00;59860.63;5083532;28;20044;-83
2024/03/13 08:28:47;;;;;;;9.55;8.18;;;;;;;-146.26;100.00;59860.63;5088345;28;20127;-82
2024/03/13 08:31:16;;;;;;;9.00;8.30;;;;;;;-146.26;100.00;59860.63;5067151;28;20048;-86
2024/03/13 08:33:45;;;;;;;13.98;11.20;;;;;;;-146.26;100.00;59860.63;5089096;28;20479;-88
2024/03/13 08:36:12;;;;;;;1.25;1.25;;;;;;;-146.26;100.00;59860.63;5082886;28;20047;-87
2024/03/13 08:38:38;;;;;;;2.05;1.95;;;;;;;-146.26;100.00;59860.63;5069266;28;20125;-87
2024/03/13 08:41:03;;;;;;;9.38;6.55;;;;;;;-146.26;100.00;59860.63;5071991;28;20051;-86
2024/03/13 08:43:29;;;;;;;16.90;9.50;;;;;;;-146.26;100.00;59860.63;5090316;28;20613;-87
2024/03/13 08:45:56;;;;;;;6.97;6.35;;;;;;;-146.26;100.00;59860.63;5084971;28;20044;-87
2024/03/13 08:48:25;;;;;;;19.25;9.57;;;;;;;-146.26;100.00;59860.63;5086865;28;20116;-83
2024/03/13 08:50:52;;;;;;;8.85;8.02;;;;;;;-146.26;100.00;59860.63;5084419;28;20518;-86
2024/03/13 08:53:18;;;;;;;2.90;2.70;;;;;;;-146.26;100.00;59860.63;5097411;28;20059;-88
2024/03/13 08:55:44;;;;;;;2.67;2.47;;;;;;;-146.26;100.00;59860.63;5075348;28;20753;-90
2024/03/13 08:58:09;;;;;;;7.43;6.43;;;;;;;-146.26;100.00;59860.63;5093360;28;20063;-89
2024/03/13 09:00:35;;;;;;;9.55;8.43;;;;;;;-146.26;100.00;59860.63;5075848;28;20048;-84
2024/03/13 09:03:04;;;;;;;9.45;8.63;;;;;;;-146.26;100.00;59860.63;5086149;28;20099;-87
2024/03/13 09:05:32;;;;;;;1.25;1.15;;;;;;;-146.26;100.00;59860.63;5072695;28;20043;-86
2024/03/13 09:07:58;;;;;;;1.95;0.82;;;;;;;-146.26;100.00;59860.63;5077659;28;20124;-86
2024/03/13 09:10:26;;;;;;;16.33;12.40;;;;;;;-146.26;100.00;59860.63;5067084;28;20040;-85
2024/03/13 09:12:53;;;;;;;9.43;8.52;;;;;;;-146.26;100.00;59860.63;5089557;28;20029;-89
2024/03/13 09:15:19;;;;;;;7.43;6.45;;;;;;;-146.26;100.00;59860.63;5061781;28;20492;-88
2024/03/13 09:17:45;;;;;;;13.43;12.02;;;;;;;-146.26;100.00;59860.63;5072236;28;20040;-85
2024/03/13 09:20:14;;;;;;;5.38;4.93;;;;;;;-146.26;100.00;59860.63;5084406;28;20032;-86
2024/03/13 09:22:44;;;;;;;7.20;6.55;;;;;;;-146.26;100.00;59860.63;5069213;28;20111;-87
2024/03/13 09:25:13;;;;;;;9.50;7.18;;;;;;;-146.26;100.00;59860.63;5072194;28;20040;-86
2024/03/13 09:27:39;;;;;;;1.83;1.73;;;;;;;-146.26;100.00;59860.63;5090316;28;20040;-87
2024/03/13 09:30:06;;;;;;;2.05;1.95;;;;;;;-146.26;100.00;59860.63;5086183;28;20040;-85
2024/03/13 09:32:32;;;;;;;8.30;7.55;;;;;;;-146.26;100.00;59860.63;5085202;28;20048;-87
2024/03/13 09:34:58;;;;;;;9.15;8.18;;;;;;;-146.26;100.00;59860.63;5083702;28;20048;-89
2024/03/13 09:37:26;;;;;;;8.05;7.30;;;;;;;-146.26;100.00;59860.63;5089041;28;20123;-85
2024/03/13 09:39:52;;;;;;;1.90;1.85;;;;;;;-146.26;100.00;59860.63;5074959;28;20041;-86
2024/03/13 09:42:22;;;;;;;11.70;10.20;;;;;;;-146.26;100.00;59860.63;5089675;28;20488;-86
2024/03/13 09:44:49;;;;;;;9.98;8.48;;;;;;;-146.26;100.00;59860.63;5099587;28;20052;-85
2024/03/13 09:47:17;;;;;;;0.95;0.90;;;;;;;-146.26;100.00;59860.63;5080344;28;20036;-86
2024/03/13 09:49:44;;;;;;;7.25;6.35;;;;;;;-146.26;100.00;59860.63;5082176;28;20036;-88
2024/03/13 09:52:15;;;;;;;1.80;1.70;;;;;;;-146.26;100.00;59860.63;5088510;28;20139;-87
2024/03/13 09:54:43;;;;;;;12.73;9.15;;;;;;;-146.26;100.00;59860.63;5071577;28;20109;-85
2024/03/13 09:57:12;;;;;;;5.85;4.55;;;;;;;-146.26;100.00;59860.63;5068350;28;20036;-85
2024/03/13 09:59:41;;;;;;;0.70;0.63;;;;;;;-146.26;100.00;59860.63;5086236;28;20080;-88
2024/03/13 10:02:18;;;;;;;15.00;8.65;;;;;;;-146.26;100.00;59860.63;5068079;28;20810;-87
2024/03/13 10:04:45;;;;;;;14.95;5.82;;;;;;;-146.26;100.00;59860.63;5070418;28;20498;-86
2024/03/13 10:07:20;;;;;;;1.17;1.15;;;;;;;-146.26;100.00;59860.63;5100381;28;20122;-86
2024/03/13 10:09:47;;;;;;;0.50;0.50;;;;;;;-146.26;100.00;59860.63;5091125;28;20044;-86
2024/03/13 10:12:17;;;;;;;0.40;0.40;;;;;;;-146.26;100.00;59860.63;5089003;28;20073;-83
2024/03/13 10:14:45;;;;;;;11.50;9.43;;;;;;;-146.26;100.00;59860.63;5072938;28;20127;-87
2024/03/13 10:17:15;;;;;;;6.95;6.32;;;;;;;-146.26;100.00;59860.63;5078966;28;20052;-87
2024/03/13 10:19:46;;;;;;;10.30;8.38;;;;;;;-146.26;100.00;59860.63;5086106;28;20032;-86
2024/03/13 10:22:17;;;;;;;1.23;1.13;;;;;;;-146.26;100.00;59860.63;5088622;28;20059;-88
2024/03/13 10:24:43;;;;;;;0.73;0.68;;;;;;;-146.26;100.00;59860.63;5087914;28;20048;-89
2024/03/13 10:27:14;;;;;;;7.80;6.93;;;;;;;-146.26;100.00;59860.63;5088645;28;20067;-85
2024/03/13 10:29:42;;;;;;;9.77;6.78;;;;;;;-146.26;100.00;59860.63;5063805;28;20058;-87
2024/03/13 10:32:11;;;;;;;6.28;4.63;;;;;;;-146.26;100.00;59860.63;5064659;28;20060;-87
2024/03/13 10:34:37;;;;;;;14.85;8.07;;;;;;;-146.26;100.00;59860.63;5086667;28;20115;-83
2024/03/13 10:37:12;;;;;;;6.03;5.47;;;;;;;-146.26;100.00;59860.63;5083836;28;20468;-86
2024/03/13 10:39:41;;;;;;;5.82;5.53;;;;;;;-146.26;100.00;59860.63;5099226;28;20151;-85
2024/03/13 10:42:09;;;;;;;0.22;0.22;;;;;;;-146.26;100.00;59860.63;5082176;28;20047;-87
2024/03/13 10:44:35;;;;;;;11.18;10.27;;;;;;;-146.26;100.00;59860.63;5082558;28;20044;-88
2024/03/13 10:47:00;;;;;;;8.25;7.40;;;;;;;-146.26;100.00;59860.63;5071834;28;20090;-86
2024/03/13 10:49:28;;;;;;;5.78;5.25;;;;;;;-146.26;100.00;59860.63;5082575;28;20076;-87
2024/03/13 10:52:02;;;;;;;10.13;8.00;;;;;;;-146.26;100.00;59860.63;5083639;28;20373;-85
2024/03/13 10:54:27;;;;;;;7.25;5.32;;;;;;;-146.26;100.00;59860.63;5087141;28;20052;-87
2024/03/13 10:56:53;;;;;;;12.68;9.50;;;;;;;-146.26;100.00;59860.63;5059803;28;20055;-87
2024/03/13 10:59:19;;;;;;;3.85;3.65;;;;;;;-146.26;100.00;59860.63;5074445;28;20059;-88
2024/03/13 11:01:52;;;;;;;9.77;8.77;;;;;;;-146.26;100.00;59860.63;5101541;28;20035;-86
2024/03/13 11:04:20;;;;;;;7.55;6.78;;;;;;;-146.26;100.00;59860.63;5087478;28;20044;-87
2024/03/13 11:06:47;;;;;;;5.82;4.53;;;;;;;-146.26;100.00;59860.63;5084176;28;20052;-83
2024/03/13 11:09:21;;;;;;;1.05;1.05;;;;;;;-146.26;100.00;59860.63;5088849;28;20048;-88
2024/03/13 11:12:25;;;;;;;5.35;4.85;;;;;;;-146.26;100.00;59860.63;5091445;28;20111;-89
2024/03/13 11:14:55;;;;;;;0.90;0.90;;;;;;;-146.26;100.00;59860.63;5077471;28;20044;-84
2024/03/13 11:17:23;;;;;;;11.02;9.90;;;;;;;-146.26;100.00;59860.63;5123687;28;20044;-86
2024/03/13 11:20:08;;;;;;;15.00;10.68;;;;;;;-146.26;100.00;59860.63;5104926;28;20020;-87
2024/03/13 11:22:35;;;;;;;15.35;10.85;;;;;;;-146.26;100.00;59860.63;5062743;28;20064;-86
2024/03/13 11:25:07;;;;;;;6.25;5.75;;;;;;;-146.26;100.00;59860.63;5076721;28;20139;-85
2024/03/13 11:27:49;;;;;;;5.35;4.85;;;;;;;-146.26;100.00;59860.63;5082739;28;20126;-88
2024/03/13 11:30:20;;;;;;;12.93;8.10;;;;;;;-146.26;100.00;59860.63;5083298;28;20040;-85